Time;durP1;ratioP1;P1;durP2;ratioP2;P2;SDS_P1;SDS_P2;PMS_P1;PMS_P2;Temp;Humidity;BMP_temperature;BMP_pressure;BME280_temperature;BME280_humidity;BME280_pressure;Samples;Min_cycle;Max_cycle;Signal;HPM_P1;HPM_P2
2022/09/04 00:02:49;;;;;;;7.12;3.70;;;;;;;16.85;85.23;100031.78;4272930;33;36078;-76
2022/09/04 00:05:35;;;;;;;;;;;;;;;17.24;83.78;100023.94;4286497;33;35559;-76
2022/09/04 00:08:49;;;;;;;7.20;3.95;;;;;;;17.13;85.08;100016.44;4284936;33;34921;-76
2022/09/04 00:11:52;;;;;;;6.78;4.32;;;;;;;16.65;86.87;100021.56;4305257;33;34606;-76
2022/09/04 00:14:51;;;;;;;6.25;4.05;;;;;;;16.37;88.95;100026.91;4295684;33;35992;-76
2022/09/04 00:18:06;;;;;;;7.65;4.28;;;;;;;17.17;84.74;100025.69;4311547;33;34831;-76
2022/09/04 00:21:20;;;;;;;8.70;3.92;;;;;;;17.27;83.47;100027.97;4310633;33;34097;-76
2022/09/04 00:24:14;;;;;;;6.32;3.75;;;;;;;17.47;81.46;100037.31;4309354;33;36018;-76
2022/09/04 00:27:17;;;;;;;8.25;4.93;;;;;;;17.50;81.25;100029.16;4296381;33;35790;-76
2022/09/04 00:30:07;;;;;;;6.75;3.90;;;;;;;17.26;81.76;100032.72;4289081;33;34719;-76
2022/09/04 00:33:07;;;;;;;7.90;4.57;;;;;;;17.22;82.73;100031.00;4307653;33;34199;-76
2022/09/04 00:35:57;;;;;;;8.45;4.55;;;;;;;17.29;83.22;100037.56;4303640;33;35662;-76
2022/09/04 00:38:47;;;;;;;8.13;4.55;;;;;;;17.15;85.21;100037.09;4291818;33;35991;-76
2022/09/04 00:41:39;;;;;;;9.30;4.80;;;;;;;17.39;84.95;100046.56;4298972;33;35546;-76
2022/09/04 00:44:46;;;;;;;8.88;5.10;;;;;;;17.41;84.96;100039.50;4305023;33;34153;-76
2022/09/04 00:47:40;;;;;;;7.25;4.07;;;;;;;17.37;85.21;100040.56;4306044;33;35198;-76
2022/09/04 00:50:39;;;;;;;8.27;4.30;;;;;;;17.66;83.44;100036.72;4307587;33;33156;-76
2022/09/04 00:54:00;;;;;;;9.45;4.90;;;;;;;17.64;82.71;100041.81;4289149;33;34772;-76
2022/09/04 00:57:15;;;;;;;8.20;4.77;;;;;;;17.58;83.10;100040.44;4293207;33;33765;-76
2022/09/04 01:00:15;;;;;;;10.05;4.25;;;;;;;17.05;85.71;100038.38;4290101;33;34663;-76
2022/09/04 01:03:32;;;;;;;7.18;4.20;;;;;;;17.18;85.65;100030.06;4281600;33;35103;-76
2022/09/04 01:06:40;;;;;;;7.57;4.78;;;;;;;17.03;86.61;100029.59;4303852;33;35658;-76
2022/09/04 01:09:42;;;;;;;7.82;4.10;;;;;;;17.44;85.36;100038.00;4288924;33;34032;-76
2022/09/04 01:12:49;;;;;;;9.98;4.85;;;;;;;17.62;83.36;100041.38;4304488;33;34808;-76
2022/09/04 01:15:42;;;;;;;7.28;4.25;;;;;;;17.40;84.32;100049.00;4284661;33;34702;-76
2022/09/04 01:18:47;;;;;;;11.85;4.85;;;;;;;17.56;83.44;100051.03;4296960;33;34719;-76
2022/09/04 01:21:58;;;;;;;7.15;4.50;;;;;;;17.71;82.46;100050.34;4283005;33;34180;-76
2022/09/04 01:24:52;;;;;;;;;;;;;;;17.78;81.79;100058.91;4304652;33;34346;-76
2022/09/04 01:27:54;;;;;;;7.20;4.10;;;;;;;17.98;81.34;100063.47;4307764;33;35219;-76
2022/09/04 01:30:51;;;;;;;;;;;;;;;18.23;79.00;100063.41;4292672;33;35587;-76
2022/09/04 01:33:47;;;;;;;6.30;3.90;;;;;;;18.17;79.80;100062.84;4291586;33;34079;-76
2022/09/04 01:36:57;;;;;;;6.75;4.47;;;;;;;18.22;79.68;100072.09;4292446;33;34706;-76
2022/09/04 01:40:02;;;;;;;6.95;4.47;;;;;;;17.58;83.01;100068.94;4293619;33;35022;-76
2022/09/04 01:43:22;;;;;;;8.63;4.70;;;;;;;17.30;85.78;100066.88;4295009;33;34737;-76
2022/09/04 01:46:57;;;;;;;8.20;4.72;;;;;;;18.03;81.74;100072.72;4296495;33;34046;-76
2022/09/04 01:49:55;;;;;;;9.85;4.75;;;;;;;17.25;86.70;100071.84;4274233;33;34592;-76
2022/09/04 01:53:19;;;;;;;8.20;4.37;;;;;;;17.66;85.02;100078.28;4291171;33;34931;-76
2022/09/04 01:56:14;;;;;;;7.28;4.78;;;;;;;17.95;83.01;100068.91;4307783;33;34890;-76
2022/09/04 01:59:34;;;;;;;9.73;4.60;;;;;;;17.95;82.71;100078.03;4293781;33;34383;-76
2022/09/04 02:02:40;;;;;;;7.40;4.43;;;;;;;17.82;83.23;100073.69;4302640;33;35544;-76
2022/09/04 02:05:48;;;;;;;7.95;4.93;;;;;;;17.16;86.78;100071.13;4294046;33;35045;-76
2022/09/04 02:08:54;;;;;;;10.70;5.20;;;;;;;17.01;89.20;100076.19;4305034;33;34597;-76
2022/09/04 02:11:52;;;;;;;7.85;5.35;;;;;;;17.40;87.15;100070.34;4302185;33;35719;-76
2022/09/04 02:14:45;;;;;;;7.55;5.15;;;;;;;17.92;82.47;100073.19;4295704;33;34599;-76
2022/09/04 02:17:55;;;;;;;8.13;5.28;;;;;;;18.04;82.06;100074.31;4307096;33;36031;-76
2022/09/04 02:21:09;;;;;;;9.00;5.40;;;;;;;17.84;83.01;100071.34;4300933;33;34569;-77
2022/09/04 02:24:01;;;;;;;7.78;5.37;;;;;;;17.47;85.00;100068.59;4297979;33;35723;-76
2022/09/04 02:27:14;;;;;;;10.15;6.22;;;;;;;17.72;84.68;100071.34;4300747;33;34670;-76
2022/09/04 02:30:09;;;;;;;10.38;5.50;;;;;;;17.59;84.02;100069.75;4302918;33;34923;-76
2022/09/04 02:32:58;;;;;;;12.27;5.47;;;;;;;17.69;83.89;100074.81;4290177;33;34505;-77
2022/09/04 02:35:56;;;;;;;7.85;5.40;;;;;;;17.19;86.86;100081.50;4303946;33;34762;-76
2022/09/04 02:39:05;;;;;;;8.13;5.32;;;;;;;17.90;82.97;100085.78;4293653;33;35186;-76
2022/09/04 02:42:21;;;;;;;7.55;5.35;;;;;;;18.14;81.11;100080.19;4296978;33;35002;-75
2022/09/04 02:45:41;;;;;;;8.98;5.37;;;;;;;17.85;83.10;100073.00;4305379;33;34476;-76
2022/09/04 02:48:39;;;;;;;7.25;5.40;;;;;;;18.01;82.32;100080.56;4307516;33;34169;-76
2022/09/04 02:51:44;;;;;;;9.68;5.90;;;;;;;17.95;81.82;100066.94;4304957;33;34647;-76
2022/09/04 02:54:52;;;;;;;6.55;5.18;;;;;;;17.78;82.82;100075.53;4304332;33;35091;-76
2022/09/04 02:57:53;;;;;;;8.80;5.43;;;;;;;17.93;82.18;100083.12;4308439;33;34950;-76
2022/09/04 03:00:54;;;;;;;7.28;5.32;;;;;;;18.06;81.64;100075.59;4305852;33;34387;-77
2022/09/04 03:03:49;;;;;;;7.95;5.10;;;;;;;18.02;81.78;100085.78;4304518;33;34345;-76
2022/09/04 03:06:57;;;;;;;10.10;5.80;;;;;;;17.90;81.93;100086.62;4294066;33;34627;-76
2022/09/04 03:09:44;;;;;;;7.47;5.18;;;;;;;17.76;83.07;100083.38;4294095;33;35333;-76
2022/09/04 03:12:44;;;;;;;8.65;5.43;;;;;;;17.81;83.04;100074.81;4297297;33;33744;-76
2022/09/04 03:15:44;;;;;;;10.63;5.90;;;;;;;17.89;82.15;100075.88;4293807;33;33795;-76
2022/09/04 03:19:01;;;;;;;9.57;4.82;;;;;;;18.12;80.42;100076.16;4291460;33;34540;-76
2022/09/04 03:22:03;;;;;;;9.82;5.43;;;;;;;18.26;79.16;100073.78;4305232;33;34418;-76
2022/09/04 03:25:31;;;;;;;7.03;5.80;;;;;;;17.81;81.75;100082.34;4294864;33;33128;-76
2022/09/04 03:28:33;;;;;;;9.63;5.22;;;;;;;17.85;81.61;100080.50;4306139;33;34691;-76
2022/09/04 03:31:25;;;;;;;9.70;5.53;;;;;;;18.00;80.66;100090.84;4294406;33;34657;-76
2022/09/04 03:34:37;;;;;;;9.15;5.47;;;;;;;18.00;80.54;100092.81;4293067;33;34644;-76
2022/09/04 03:37:39;;;;;;;10.00;6.00;;;;;;;17.88;81.33;100097.25;4305435;33;33494;-76
2022/09/04 03:40:28;;;;;;;8.60;5.55;;;;;;;17.68;82.32;100095.38;4303298;33;34706;-76
2022/09/04 03:43:40;;;;;;;7.93;5.50;;;;;;;17.58;83.15;100093.06;4306125;33;34628;-76
2022/09/04 03:46:41;;;;;;;6.37;4.82;;;;;;;17.61;82.26;100104.25;4287739;33;35436;-76
2022/09/04 03:49:48;;;;;;;9.63;5.00;;;;;;;17.47;82.97;100096.28;4308086;33;34718;-76
2022/09/04 03:52:59;;;;;;;6.60;4.82;;;;;;;17.49;83.19;100095.97;4292856;33;34684;-76
2022/09/04 03:56:05;;;;;;;;;;;;;;;17.64;82.37;100102.75;4294896;33;34949;-76
2022/09/04 03:59:04;;;;;;;7.15;5.25;;;;;;;17.79;81.29;100104.03;4287212;33;35130;-76
2022/09/04 04:02:01;;;;;;;8.40;5.32;;;;;;;17.87;80.78;100101.19;4294515;33;33978;-76
2022/09/04 04:05:00;;;;;;;8.73;5.28;;;;;;;17.56;82.59;100103.69;4293220;33;34609;-76
2022/09/04 04:08:19;;;;;;;8.23;5.35;;;;;;;17.58;82.68;100107.72;4292685;33;34980;-77
2022/09/04 04:11:18;;;;;;;8.82;5.65;;;;;;;17.83;81.32;100116.06;4304148;33;35496;-76
2022/09/04 04:14:21;;;;;;;7.62;4.93;;;;;;;17.81;81.09;100121.94;4305636;33;35141;-76
2022/09/04 04:17:23;;;;;;;7.35;5.53;;;;;;;17.79;81.33;100121.50;4291694;33;35313;-76
2022/09/04 04:20:37;;;;;;;8.63;5.32;;;;;;;17.76;81.49;100133.25;4311197;33;34958;-76
2022/09/04 04:23:56;;;;;;;7.35;5.62;;;;;;;17.75;81.54;100137.97;4306298;33;35565;-76
2022/09/04 04:26:42;;;;;;;8.82;5.53;;;;;;;17.15;84.45;100149.81;4291741;33;35104;-76
2022/09/04 04:29:39;;;;;;;11.30;5.50;;;;;;;17.49;83.45;100146.63;4305630;33;33631;-76
2022/09/04 04:32:47;;;;;;;11.32;5.93;;;;;;;17.57;83.50;100155.19;4298103;33;35668;-76
2022/09/04 04:36:16;;;;;;;9.05;5.40;;;;;;;17.29;84.20;100156.66;4305025;33;34790;-76
2022/09/04 04:39:13;;;;;;;10.40;6.70;;;;;;;17.24;84.68;100172.66;4296036;33;35118;-76
2022/09/04 04:42:19;;;;;;;9.07;6.12;;;;;;;17.39;84.71;100163.72;4297165;33;34638;-76
2022/09/04 04:49:03;;;;;;;8.48;5.87;;;;;;;17.73;83.40;100169.97;4308647;33;34673;-76
2022/09/04 04:52:20;;;;;;;10.43;5.82;;;;;;;17.53;85.19;100172.50;4300913;33;33941;-77
2022/09/04 04:55:16;;;;;;;7.60;5.43;;;;;;;17.62;83.43;100168.81;4297392;33;34242;-76
2022/09/04 04:58:10;;;;;;;9.70;5.65;;;;;;;17.59;85.18;100173.09;4285785;33;36065;-77
2022/09/04 05:01:11;;;;;;;8.55;5.22;;;;;;;17.81;83.44;100188.47;4301882;33;35500;-76
2022/09/04 05:04:16;;;;;;;;;;;;;;;17.82;83.47;100192.87;4298151;33;34276;-76
2022/09/04 05:07:11;;;;;;;8.80;5.10;;;;;;;18.03;82.93;100186.41;4302971;33;34883;-76
2022/09/04 05:10:21;;;;;;;7.68;5.55;;;;;;;18.21;82.61;100182.19;4301171;33;35055;-76
2022/09/04 05:13:19;;;;;;;6.82;4.93;;;;;;;18.21;82.33;100179.44;4302265;33;35199;-76
2022/09/04 05:16:17;;;;;;;6.70;4.90;;;;;;;18.07;82.80;100190.06;4304864;33;34198;-76
2022/09/04 05:19:28;;;;;;;8.48;5.07;;;;;;;18.00;84.20;100190.66;4292166;33;35639;-76
2022/09/04 05:22:51;;;;;;;7.30;4.55;;;;;;;18.57;81.34;100189.63;4300553;33;34940;-77
2022/09/04 05:25:39;;;;;;;7.15;5.32;;;;;;;18.19;83.89;100192.84;4293873;33;33850;-76
2022/09/04 05:28:37;;;;;;;7.75;5.00;;;;;;;18.18;84.28;100182.91;4292781;33;34968;-76
2022/09/04 05:31:31;;;;;;;7.35;4.90;;;;;;;18.32;82.82;100199.19;4292815;33;34594;-77
2022/09/04 05:34:50;;;;;;;7.53;4.62;;;;;;;18.55;80.99;100202.25;4304208;33;35086;-76
2022/09/04 05:37:56;;;;;;;8.50;4.97;;;;;;;18.63;80.14;100199.34;4305692;33;35556;-77
2022/09/04 05:41:04;;;;;;;6.70;4.37;;;;;;;17.87;84.47;100202.91;4294321;33;34663;-76
2022/09/04 05:44:19;;;;;;;6.50;4.07;;;;;;;18.18;83.42;100207.88;4297709;33;36715;-76
2022/09/04 05:47:44;;;;;;;6.62;4.07;;;;;;;18.61;80.94;100220.25;4306428;33;35656;-77
2022/09/04 05:51:04;;;;;;;6.97;3.92;;;;;;;18.26;82.81;100218.03;4300008;33;34426;-77
2022/09/04 05:54:05;;;;;;;7.18;4.00;;;;;;;18.39;82.69;100222.41;4284802;33;34091;-77
2022/09/04 05:57:04;;;;;;;;;;;;;;;18.21;84.50;100221.03;4301348;33;35456;-77
2022/09/04 06:00:04;;;;;;;5.82;4.10;;;;;;;18.04;84.78;100222.06;4305843;33;35215;-77
2022/09/04 06:03:15;;;;;;;6.45;3.80;;;;;;;18.20;83.48;100219.44;4292005;33;34795;-77
2022/09/04 06:06:14;;;;;;;4.95;3.70;;;;;;;18.50;81.36;100216.34;4288161;33;35242;-77
2022/09/04 06:09:38;;;;;;;7.22;3.83;;;;;;;18.57;80.83;100211.03;4291167;33;35401;-77
2022/09/04 06:12:40;;;;;;;5.70;3.53;;;;;;;18.46;81.52;100216.25;4275338;33;34965;-76
2022/09/04 06:15:30;;;;;;;5.62;3.45;;;;;;;18.55;81.57;100224.44;4291265;33;34812;-76
2022/09/04 06:18:27;;;;;;;6.53;3.65;;;;;;;18.52;80.98;100219.59;4293567;33;34212;-77
2022/09/04 06:21:22;;;;;;;5.28;3.70;;;;;;;18.60;80.30;100215.88;4291815;33;36447;-77
2022/09/04 06:24:24;;;;;;;5.15;3.53;;;;;;;18.52;80.52;100225.16;4304184;33;34521;-77
2022/09/04 06:27:32;;;;;;;8.73;3.90;;;;;;;18.63;80.20;100227.09;4298207;33;34242;-77
2022/09/04 06:30:20;;;;;;;6.62;3.62;;;;;;;18.35;82.05;100224.25;4306331;33;35971;-77
2022/09/04 06:33:19;;;;;;;4.55;3.47;;;;;;;18.35;82.63;100229.78;4294336;33;34663;-76
2022/09/04 06:36:29;;;;;;;5.07;3.22;;;;;;;18.55;81.32;100235.56;4291490;33;34993;-76
2022/09/04 06:39:29;;;;;;;5.07;3.53;;;;;;;18.34;82.73;100228.19;4286662;33;34317;-77
2022/09/04 06:42:47;;;;;;;4.32;3.25;;;;;;;18.47;80.48;100233.72;4304825;33;34162;-76
2022/09/04 06:46:11;;;;;;;7.68;3.83;;;;;;;18.64;79.74;100230.66;4290734;33;35623;-75
2022/09/04 06:49:14;;;;;;;5.50;3.10;;;;;;;18.97;77.47;100243.56;4294044;33;34505;-76
2022/09/04 06:52:25;;;;;;;4.93;3.37;;;;;;;18.54;80.48;100251.41;4289535;33;34561;-75
2022/09/04 06:55:27;;;;;;;5.75;3.15;;;;;;;18.64;80.68;100247.31;4299276;33;35590;-76
2022/09/04 06:58:39;;;;;;;4.95;3.15;;;;;;;19.01;78.31;100261.13;4291562;33;34630;-76
2022/09/04 07:01:51;;;;;;;6.80;3.45;;;;;;;18.59;81.02;100255.91;4286648;33;35897;-76
2022/09/04 07:05:03;;;;;;;6.65;3.78;;;;;;;18.65;80.88;100254.50;4304044;33;35326;-76
2022/09/04 07:08:01;;;;;;;5.32;3.28;;;;;;;19.06;78.10;100258.09;4290661;33;36616;-76
2022/09/04 07:11:02;;;;;;;5.72;3.53;;;;;;;19.10;77.40;100256.25;4301361;33;34724;-76
2022/09/04 07:13:49;;;;;;;;;;;;;;;19.13;77.21;100255.53;4292597;33;35918;-76
2022/09/04 07:16:48;;;;;;;4.37;3.12;;;;;;;19.53;74.90;100258.22;4291569;33;34569;-76
2022/09/04 07:19:40;;;;;;;7.60;3.37;;;;;;;19.25;76.48;100258.25;4298949;33;33891;-76
2022/09/04 07:22:34;;;;;;;5.87;3.42;;;;;;;19.15;77.52;100264.31;4299653;33;36128;-75
2022/09/04 07:25:22;;;;;;;5.03;3.22;;;;;;;19.57;73.54;100263.87;4290292;33;35650;-76
2022/09/04 07:28:35;;;;;;;5.45;3.40;;;;;;;18.96;76.53;100266.94;4301306;33;35592;-76
2022/09/04 07:31:33;;;;;;;6.20;3.53;;;;;;;19.63;74.57;100267.19;4280717;33;35158;-76
2022/09/04 07:34:42;;;;;;;6.68;3.85;;;;;;;19.74;72.23;100263.56;4290681;33;34623;-78
2022/09/04 07:37:42;;;;;;;8.05;3.87;;;;;;;19.53;73.89;100271.31;4303628;33;36063;-77
2022/09/04 07:40:34;;;;;;;5.53;3.60;;;;;;;19.07;77.18;100279.19;4295520;33;34685;-77
2022/09/04 07:43:32;;;;;;;5.60;3.87;;;;;;;19.46;74.84;100273.91;4297228;33;34207;-77
2022/09/04 07:46:39;;;;;;;5.90;3.53;;;;;;;19.58;73.56;100273.84;4297770;33;34892;-76
2022/09/04 07:49:34;;;;;;;5.10;3.65;;;;;;;19.70;73.19;100275.78;4294808;33;34247;-76
2022/09/04 07:52:42;;;;;;;7.20;4.00;;;;;;;19.60;72.51;100279.84;4288202;33;34406;-76
2022/09/04 07:55:36;;;;;;;5.72;3.80;;;;;;;19.28;74.64;100282.53;4293894;33;34109;-77
2022/09/04 07:58:44;;;;;;;5.50;3.47;;;;;;;19.38;73.70;100284.03;4283013;33;34722;-76
2022/09/04 08:02:05;;;;;;;6.62;3.67;;;;;;;19.35;73.56;100283.91;4294051;33;34959;-76
2022/09/04 08:04:58;;;;;;;4.67;3.40;;;;;;;19.91;71.31;100286.62;4300134;33;34779;-76
2022/09/04 08:08:12;;;;;;;4.97;3.45;;;;;;;19.89;70.84;100295.31;4298556;33;34353;-76
2022/09/04 08:11:08;;;;;;;8.27;3.30;;;;;;;19.61;74.53;100306.50;4300413;33;35644;-76
2022/09/04 08:14:03;;;;;;;6.32;4.05;;;;;;;20.02;72.77;100309.97;4294738;33;35222;-76
2022/09/04 08:17:24;;;;;;;6.25;3.40;;;;;;;19.88;73.57;100315.16;4274833;33;34465;-77
2022/09/04 08:20:19;;;;;;;8.63;3.83;;;;;;;20.46;69.95;100323.75;4286761;33;34109;-77
2022/09/04 08:23:36;;;;;;;4.95;3.10;;;;;;;19.68;73.34;100325.34;4298268;33;35894;-77
2022/09/04 08:26:48;;;;;;;8.40;3.67;;;;;;;19.88;71.29;100317.94;4296705;33;34592;-76
2022/09/04 08:29:44;;;;;;;5.65;3.83;;;;;;;20.40;68.74;100320.44;4294409;33;34724;-77
2022/09/04 08:33:04;;;;;;;5.28;3.50;;;;;;;20.03;70.62;100319.91;4299567;33;34223;-77
2022/09/04 08:35:56;;;;;;;5.05;3.42;;;;;;;19.75;71.89;100319.97;4300469;33;35563;-77
2022/09/04 08:39:01;;;;;;;;;;;;;;;20.17;70.43;100325.84;4282990;33;36019;-77
2022/09/04 08:41:57;;;;;;;5.18;3.62;;;;;;;20.62;68.26;100316.22;4294987;33;182855;-77
2022/09/04 08:45:05;;;;;;;6.93;3.25;;;;;;;20.62;68.61;100310.66;4298317;33;33474;-77
2022/09/04 08:48:06;;;;;;;6.62;3.67;;;;;;;21.02;65.98;100319.88;4303127;33;34556;-77
2022/09/04 08:51:14;;;;;;;7.30;3.60;;;;;;;20.38;68.07;100325.56;4281858;33;35716;-76
2022/09/04 08:54:24;;;;;;;6.18;3.42;;;;;;;20.11;69.91;100326.47;4293488;33;34186;-77
2022/09/04 08:57:24;;;;;;;8.02;4.45;;;;;;;20.44;68.84;100328.91;4289863;33;34118;-76
2022/09/04 09:00:41;;;;;;;5.60;3.75;;;;;;;20.00;71.55;100331.75;4286960;33;35825;-76
2022/09/04 09:03:34;;;;;;;6.18;4.00;;;;;;;20.85;66.00;100316.34;4278278;33;34914;-77
2022/09/04 09:06:33;;;;;;;5.62;3.95;;;;;;;20.89;66.22;100317.25;4279851;33;33338;-76
2022/09/04 09:09:57;;;;;;;6.37;3.85;;;;;;;20.61;68.83;100322.97;4289044;33;33916;-76
2022/09/04 09:13:05;;;;;;;8.85;3.65;;;;;;;21.01;67.06;100323.84;4295307;33;34774;-77
2022/09/04 09:16:16;;;;;;;6.35;3.35;;;;;;;20.61;68.48;100328.53;4280970;33;36099;-77
2022/09/04 09:19:36;;;;;;;5.37;3.30;;;;;;;21.01;66.83;100330.22;4285396;33;34195;-77
2022/09/04 09:23:08;;;;;;;5.35;3.55;;;;;;;20.85;66.94;100323.88;4302313;33;33904;-76
2022/09/04 09:26:03;;;;;;;5.62;3.72;;;;;;;20.91;67.98;100325.22;4297043;33;34533;-76
2022/09/04 09:29:38;;;;;;;6.35;3.90;;;;;;;21.30;65.77;100333.62;4313708;33;35999;-77
2022/09/04 09:32:52;;;;;;;5.93;3.78;;;;;;;21.58;63.83;100335.41;4233679;33;35253;-76
2022/09/04 09:35:42;;;;;;;7.43;4.03;;;;;;;21.84;63.34;100338.28;4252330;33;34133;-76
2022/09/04 09:38:28;;;;;;;6.78;3.83;;;;;;;22.17;60.23;100339.66;4299996;33;35741;-76
2022/09/04 09:41:45;;;;;;;6.25;4.10;;;;;;;21.74;62.97;100338.87;4300529;33;35659;-76
2022/09/04 09:44:41;;;;;;;6.70;3.62;;;;;;;21.71;62.71;100334.03;4292966;33;34644;-76
2022/09/04 09:48:05;;;;;;;5.28;3.72;;;;;;;21.54;64.19;100335.31;4290646;33;33659;-76
2022/09/04 09:51:39;;;;;;;6.10;3.60;;;;;;;20.97;65.01;100334.91;4295568;33;34702;-77
2022/09/04 09:54:40;;;;;;;4.82;3.25;;;;;;;21.47;64.83;100335.97;4295259;33;35437;-76
2022/09/04 09:57:39;;;;;;;;;;;;;;;21.26;66.09;100332.72;4288741;33;34606;-77
2022/09/04 10:00:35;;;;;;;4.87;3.60;;;;;;;21.48;64.86;100334.81;4310189;33;34156;-77
2022/09/04 10:03:40;;;;;;;6.45;3.60;;;;;;;21.85;62.18;100334.31;4287053;33;35544;-77
2022/09/04 10:07:09;;;;;;;6.18;3.30;;;;;;;22.30;59.50;100332.72;4302128;33;35246;-76
2022/09/04 10:10:23;;;;;;;7.12;3.85;;;;;;;22.12;61.24;100338.00;4285048;33;33891;-76
2022/09/04 10:13:14;;;;;;;7.30;3.67;;;;;;;21.63;62.97;100344.28;4281241;33;34239;-77
2022/09/04 10:16:38;;;;;;;8.45;3.55;;;;;;;21.88;63.50;100344.72;4292365;33;35264;-76
2022/09/04 10:20:02;;;;;;;4.55;3.08;;;;;;;21.74;63.51;100341.66;4309872;33;35056;-76
2022/09/04 10:23:04;;;;;;;5.35;3.20;;;;;;;22.24;60.68;100337.03;4311261;33;34825;-76
2022/09/04 10:25:59;;;;;;;4.80;3.15;;;;;;;22.25;61.16;100338.63;4299743;33;34085;-76
2022/09/04 10:29:10;;;;;;;5.28;3.42;;;;;;;22.14;61.02;100341.22;4289274;33;34168;-76
2022/09/04 10:32:11;;;;;;;5.40;3.20;;;;;;;21.56;64.30;100338.53;4288143;33;34766;-77
2022/09/04 10:35:17;;;;;;;5.22;3.20;;;;;;;22.13;62.17;100327.63;4288848;33;35611;-77
2022/09/04 10:38:09;;;;;;;5.35;3.10;;;;;;;22.32;61.58;100333.19;4296123;33;33677;-76
2022/09/04 10:41:13;;;;;;;4.43;3.03;;;;;;;21.96;63.59;100335.31;4301421;33;36381;-76
2022/09/04 10:44:22;;;;;;;5.87;3.47;;;;;;;22.11;63.05;100346.72;4290829;33;34833;-77
2022/09/04 10:47:27;;;;;;;4.70;3.50;;;;;;;21.98;65.07;100344.12;4291296;33;34660;-76
2022/09/04 10:50:23;;;;;;;6.05;3.35;;;;;;;22.24;66.41;100339.81;4278866;33;34845;-77
2022/09/04 10:53:21;;;;;;;6.62;3.60;;;;;;;22.28;68.60;100346.25;4278115;33;34339;-77
2022/09/04 10:56:29;;;;;;;6.85;4.12;;;;;;;22.20;69.10;100345.34;4269047;33;34026;-78
2022/09/04 10:59:57;;;;;;;6.25;4.20;;;;;;;22.29;67.54;100345.09;4280379;33;35166;-77
2022/09/04 11:02:51;;;;;;;8.90;5.00;;;;;;;21.79;71.97;100352.53;4258525;33;33698;-78
2022/09/04 11:05:59;;;;;;;7.35;4.50;;;;;;;22.10;72.59;100356.28;4297381;33;34770;-78
2022/09/04 11:09:09;;;;;;;8.10;4.93;;;;;;;22.27;71.93;100349.44;4291549;33;35535;-77
2022/09/04 11:12:08;;;;;;;8.05;4.60;;;;;;;22.04;74.51;100360.56;4299674;33;34713;-77
2022/09/04 11:15:03;;;;;;;6.35;4.40;;;;;;;22.11;73.48;100353.09;4286139;33;35167;-78
2022/09/04 11:17:56;;;;;;;6.07;4.05;;;;;;;22.44;71.58;100355.31;4265859;33;34597;-78
2022/09/04 11:21:01;;;;;;;5.22;3.80;;;;;;;22.59;67.69;100352.72;4284279;33;35965;-77
2022/09/04 11:24:26;;;;;;;7.15;4.05;;;;;;;22.19;69.05;100354.06;4286160;33;34065;-77
2022/09/04 11:27:50;;;;;;;5.28;3.70;;;;;;;22.29;68.09;100353.47;4292567;33;34140;-77
2022/09/04 11:30:55;;;;;;;6.10;4.18;;;;;;;23.12;61.40;100350.75;4278869;33;34640;-77
2022/09/04 11:34:03;;;;;;;6.40;4.05;;;;;;;22.59;64.03;100349.94;4292289;33;34909;-77
2022/09/04 11:37:24;;;;;;;6.05;3.70;;;;;;;22.93;60.85;100359.22;4276301;33;35574;-77
2022/09/04 11:40:15;;;;;;;4.97;3.35;;;;;;;22.83;62.04;100357.91;4302969;33;35058;-77
2022/09/04 11:43:04;;;;;;;;;;;;;;;22.75;63.95;100353.38;4284313;33;34307;-77
2022/09/04 11:46:34;;;;;;;4.93;3.50;;;;;;;22.89;60.38;100350.81;4300706;33;36090;-77
2022/09/04 11:50:13;;;;;;;5.00;3.33;;;;;;;22.95;61.89;100340.12;4285536;33;34403;-77
2022/09/04 11:53:27;;;;;;;6.07;3.90;;;;;;;22.88;62.30;100334.41;4203895;33;33868;-78
2022/09/04 11:56:33;;;;;;;6.20;3.55;;;;;;;21.98;63.19;100335.75;4304276;33;34743;-77
2022/09/04 11:59:38;;;;;;;4.95;3.62;;;;;;;21.65;63.49;100330.75;4293004;33;34993;-77
2022/09/04 12:02:27;;;;;;;6.40;3.50;;;;;;;22.30;61.96;100327.16;4300246;33;34565;-77
2022/09/04 12:05:37;;;;;;;7.25;3.40;;;;;;;21.68;61.98;100318.84;4299533;33;34163;-77
2022/09/04 12:08:53;;;;;;;6.15;3.05;;;;;;;22.05;61.73;100311.94;4294813;33;33487;-77
2022/09/04 12:11:39;;;;;;;4.75;2.95;;;;;;;22.55;58.85;100310.00;4302788;33;34802;-77
2022/09/04 12:14:49;;;;;;;4.82;3.00;;;;;;;22.31;60.53;100311.19;4287186;33;35370;-77
2022/09/04 12:17:46;;;;;;;5.82;3.42;;;;;;;22.73;58.54;100313.03;4287480;33;34332;-77
2022/09/04 12:20:47;;;;;;;7.25;3.47;;;;;;;22.16;58.44;100315.72;4303058;33;34756;-77
2022/09/04 12:23:55;;;;;;;5.87;3.22;;;;;;;23.19;56.69;100304.50;4289785;33;33525;-77
2022/09/04 12:26:50;;;;;;;4.72;3.40;;;;;;;23.80;53.09;100306.03;4279571;33;37624;-77
2022/09/04 12:30:14;;;;;;;4.78;2.67;;;;;;;23.21;53.33;100311.31;4290978;33;34101;-78
2022/09/04 12:33:49;;;;;;;5.07;2.55;;;;;;;23.93;54.05;100315.72;4297236;33;34727;-78
2022/09/04 12:36:44;;;;;;;6.12;2.87;;;;;;;24.62;51.67;100311.53;4293591;33;34583;-78
2022/09/04 12:39:41;;;;;;;5.50;2.97;;;;;;;23.64;51.27;100311.03;4304857;33;35115;-78
2022/09/04 12:42:36;;;;;;;4.12;2.60;;;;;;;23.64;51.18;100309.03;4302645;33;34210;-78
2022/09/04 12:45:41;;;;;;;5.62;2.92;;;;;;;24.15;51.93;100304.75;4290214;33;34374;-78
2022/09/04 12:48:55;;;;;;;4.90;3.03;;;;;;;24.53;51.28;100303.44;4303224;33;36125;-78
2022/09/04 12:51:50;;;;;;;4.93;3.35;;;;;;;23.13;51.15;100301.25;4282539;33;34079;-78
2022/09/04 12:54:54;;;;;;;5.20;2.80;;;;;;;24.86;49.58;100304.47;4270550;33;34150;-78
2022/09/04 12:58:08;;;;;;;4.60;2.90;;;;;;;24.48;51.97;100303.84;4274119;33;34589;-79
2022/09/04 13:01:30;;;;;;;4.37;2.90;;;;;;;24.92;48.94;100291.69;4278524;33;35685;-79
2022/09/04 13:04:22;;;;;;;4.32;2.75;;;;;;;24.74;50.60;100304.81;4281839;33;33954;-78
2022/09/04 13:07:40;;;;;;;4.25;3.03;;;;;;;24.60;51.29;100297.09;4285349;33;34194;-79
2022/09/04 13:10:32;;;;;;;5.62;3.50;;;;;;;25.12;49.72;100289.38;4279260;33;34591;-79
2022/09/04 13:13:23;;;;;;;6.65;3.50;;;;;;;25.38;52.19;100285.47;4295691;33;34985;-79
2022/09/04 13:16:49;;;;;;;4.95;3.22;;;;;;;25.79;48.94;100276.75;4282872;33;34400;-79
2022/09/04 13:20:11;;;;;;;5.72;3.37;;;;;;;26.28;45.97;100274.41;4301877;33;34550;-78
2022/09/04 13:23:19;;;;;;;4.85;3.35;;;;;;;25.98;43.97;100273.56;4292775;33;35525;-80
2022/09/04 13:26:28;;;;;;;4.53;2.97;;;;;;;25.36;47.83;100265.47;4285448;33;35980;-80
2022/09/04 13:29:45;;;;;;;6.05;3.60;;;;;;;26.06;45.79;100270.78;4291196;33;35186;-79
2022/09/04 13:33:16;;;;;;;7.60;4.00;;;;;;;26.11;45.46;100264.78;4279365;33;34270;-79
2022/09/04 13:36:18;;;;;;;5.07;3.47;;;;;;;25.88;47.01;100274.37;4242682;33;34569;-79
2022/09/04 13:39:18;;;;;;;5.20;3.08;;;;;;;26.51;44.72;100271.97;4231698;33;34553;-79
2022/09/04 13:42:07;;;;;;;3.53;2.83;;;;;;;25.96;46.27;100273.19;4299293;33;35515;-79
2022/09/04 13:45:04;;;;;;;5.72;3.00;;;;;;;26.67;45.35;100263.13;4287403;33;33779;-79
2022/09/04 13:47:59;;;;;;;5.07;3.10;;;;;;;27.27;42.65;100264.91;4290048;33;34740;-78
2022/09/04 13:50:54;;;;;;;4.97;3.40;;;;;;;27.70;41.82;100261.03;4294827;33;34624;-79
2022/09/04 13:53:57;;;;;;;4.78;3.00;;;;;;;27.69;41.01;100262.22;4296525;33;34171;-78
2022/09/04 13:56:50;;;;;;;5.00;3.08;;;;;;;27.88;39.33;100266.56;4298620;33;34062;-78
2022/09/04 13:59:37;;;;;;;6.62;3.28;;;;;;;27.66;40.30;100266.69;4279535;33;35251;-78
2022/09/04 14:02:25;;;;;;;3.80;3.08;;;;;;;28.44;36.81;100264.50;4274526;33;35939;-78
2022/09/04 14:05:17;;;;;;;4.03;3.03;;;;;;;28.86;36.87;100268.03;4287023;33;35521;-79
2022/09/04 14:08:07;;;;;;;4.62;3.10;;;;;;;28.64;38.32;100257.03;4282229;33;34013;-79
2022/09/04 14:11:21;;;;;;;3.75;2.90;;;;;;;29.16;35.01;100256.03;4287203;33;35620;-80
2022/09/04 14:14:22;;;;;;;4.05;3.25;;;;;;;29.05;35.66;100250.50;4283945;33;35067;-80
2022/09/04 14:17:11;;;;;;;4.57;3.53;;;;;;;27.60;39.24;100248.62;4305076;33;36253;-80
2022/09/04 14:20:07;;;;;;;4.65;3.33;;;;;;;28.02;37.97;100249.53;4308931;33;34410;-79
2022/09/04 14:23:14;;;;;;;4.65;3.10;;;;;;;29.06;34.51;100252.12;4275661;33;33622;-79
2022/09/04 14:26:15;;;;;;;4.03;2.90;;;;;;;28.65;36.86;100252.97;4295696;33;34985;-78